Terminal Aerodrome Forecast
Issued by NWS Albany, NY

Current Version | Previous Version | Text Only | Print | Product List | Glossary On
Versions: 1 2 3 4 5 6 7 8 9 10 11 12 13 14 15 16 17 18 19 20 21 22 23 24 25
000 FTUS41 KALY 061720 TAFALB TAF KALB 061720Z 0618/0718 28004KT P6SM SKC FM062200 20003KT P6SM BKN200 FM070900 20003KT P6SM BKN120 FM071200 22008KT P6SM BKN045 BKN100=

USA.gov is the U.S. government's official web portal to all federal, state and local government web resources and services.